Adelaide Aviation Weather

.

TAF YPAD 090507Z 0906/1012 17008KT 9999 BKN030 BECMG 0912/0914 06004KT 9999 FEW025 FM100000 06010KT CAVOK RMK T 14 11 08 07 Q 1019 1020 1021 1022

METAR YPAD 090630Z 17009KT 9999 OVC029 13/08 Q1020 RMK RF00.0/000.0

You can obtain an AWS computerised voice summary of the weather at these airports. Adelaide 08 8150 3800, Renmark 08 8150 3817, Mount Gambier 08 81503809, Port Lincoln 08 8150 3814.


Also the Bureau of Meteorology has an Adelaide weather radar here and the Graphical Area Forecast here